• Join FlightAware (Why Join?)
  • Login
  • US Flag 
03:59AM EDT


 

Airport Tracker/Info


-or-


 

Live Flight TrackerFlight Track Log ✈ EJA929 ✈ 24-Jun-2013 ✈ KLAS - KBIL

Flight Track Log - Related Links

Times and Time Zones

All times are in EDT time to prevent confusion due to time zone crossing. See the EJA929 flight status page for this flight to view local times or setup timezone preferences in your user account.

Time Position Orientation Groundspeed Altitude Reporting Facility
EDT Latitude Longitude Course Direction KTS MPH feet Rate Location/Type
01:59PM 36.0686 -115.1839 234° Southwest 178 205 3,400  Level Los Angeles Center
02:00PM 36.0419 -115.2300 234° Southwest 186 214 6,200 1,800 Climbing Los Angeles Center
02:01PM 35.9994 -115.3025 234° Southwest 243 280 7,100 2,160 Climbing Los Angeles Center
02:02PM 35.9447 -115.3494 215° Southwest 260 299 10,900 3,780 Climbing Los Angeles Center
02:03PM 35.9181 -115.2147 104° East 326 375 16,400 3,000 Climbing Los Angeles Center
02:04PM 35.9450 -115.1025 73° East 343 395 18,300 1,620 Climbing Los Angeles Center
02:06PM 35.9828 -114.9742 70° East 385 443 19,800 1,320 Climbing Los Angeles Center
02:07PM 36.0500 -114.8531 56° Northeast 434 499 21,300 1,560 Climbing Los Angeles Center
02:08PM 36.1961 -114.7422 31° Northeast 445 512 23,400 1,680 Climbing Los Angeles Center
02:09PM 36.3058 -114.6572 32° Northeast 462 532 24,900 720 Climbing Los Angeles Center
02:10PM 36.3964 -114.5300 48° Northeast 493 567 25,000 240 Climbing Los Angeles Center
02:11PM 36.4883 -114.3944 50° Northeast 510 587 25,500 960 Climbing Los Angeles Center
02:12PM 36.5933 -114.2811 41° Northeast 503 579 27,000 1,500 Climbing Los Angeles Center
02:13PM 36.7236 -114.2119 23° Northeast 490 564 28,600 1,560 Climbing Los Angeles Center
02:14PM 36.8692 -114.1358 23° Northeast 488 562 30,300 1,500 Climbing Los Angeles Center
02:15PM 36.9944 -114.0686 23° Northeast 489 563 31,800 1,440 Climbing Los Angeles Center
02:16PM 37.1003 -113.9511 42° Northeast 505 581 33,300 1,500 Climbing Los Angeles Center
02:17PM 37.2139 -113.8300 40° Northeast 513 590 34,900 1,500 Climbing Los Angeles Center
02:18PM 37.3275 -113.7181 38° Northeast 518 596 36,400 1,440 Climbing Los Angeles Center
02:19PM 37.4425 -113.6042 38° Northeast 523 602 37,900 1,440 Climbing Los Angeles Center
02:20PM 37.5600 -113.4933 37° Northeast 525 604 39,400 1,440 Climbing Los Angeles Center
02:21PM 37.6656 -113.4392 22° Northeast 513 590 40,500 840 Climbing Salt Lake Center
02:22PM 37.7994 -113.3700 22° Northeast 513 590 41,000 240 Climbing Salt Lake Center
02:23PM 37.9350 -113.2994 22° Northeast 520 598 41,000  Level Salt Lake Center
02:24PM 38.0994 -113.2142 22° Northeast 527 606 41,000  Level Salt Lake Center
02:25PM 38.2369 -113.1428 22° Northeast 530 610 41,000  Level Salt Lake Center
02:26PM 38.3742 -113.0703 22° Northeast 532 612 41,000  Level Salt Lake Center
02:27PM 38.5108 -112.9989 22° Northeast 530 610 41,000  Level Salt Lake Center
02:28PM 38.6472 -112.9261 23° Northeast 531 611 41,000  Level Salt Lake Center
02:29PM 38.7842 -112.8514 23° Northeast 533 613 41,000  Level Salt Lake Center
02:30PM 38.9217 -112.7794 22° Northeast 533 613 41,000  Level Salt Lake Center
02:31PM 39.0850 -112.6897 23° Northeast 532 612 41,000  Level Salt Lake Center
02:32PM 39.2219 -112.6175 22° Northeast 532 612 41,000  Level Salt Lake Center
02:33PM 39.3694 -112.5389 22° Northeast 529 609 41,000  Level Salt Lake Center
02:34PM 39.5053 -112.4631 23° Northeast 531 611 41,000  Level Salt Lake Center
02:35PM 39.6411 -112.3892 23° Northeast 529 609 41,000  Level Salt Lake Center
02:36PM 39.7767 -112.3136 23° Northeast 531 611 41,000  Level Salt Lake Center
02:38PM 39.9128 -112.2397 23° Northeast 532 612 41,000  Level Salt Lake Center
02:39PM 40.0486 -112.1644 23° Northeast 530 610 41,000  Level Salt Lake Center
02:40PM 40.2119 -112.0739 23° Northeast 533 613 41,000  Level Salt Lake Center
02:41PM 40.3489 -111.9967 23° Northeast 535 616 41,000  Level Salt Lake Center
02:42PM 40.4853 -111.9194 23° Northeast 537 618 41,000  Level Salt Lake Center
02:43PM 40.6203 -111.8422 23° Northeast 534 615 41,000  Level Salt Lake Center
02:44PM 40.7553 -111.7658 23° Northeast 534 615 41,000  Level Salt Lake Center
02:45PM 40.9156 -111.6753 23° Northeast 532 612 41,000  Level Salt Lake Center
02:46PM 41.0478 -111.5989 24° Northeast 533 613 41,000  Level Salt Lake Center
02:47PM 41.1819 -111.5219 23° Northeast 534 615 41,000  Level Salt Lake Center
02:48PM 41.3169 -111.4450 23° Northeast 534 615 41,000  Level Salt Lake Center
02:49PM 41.4531 -111.3656 24° Northeast 536 617 41,000  Level Salt Lake Center
02:50PM 41.6092 -111.2511 29° Northeast 534 615 41,000  Level Salt Lake Center
02:51PM 41.7378 -111.1461 31° Northeast 540 621 41,000  Level Salt Lake Center
02:52PM 41.8711 -111.0478 29° Northeast 545 627 41,000  Level Salt Lake Center
02:53PM 42.0086 -110.9708 23° Northeast 539 620 41,000  Level Salt Lake Center
02:54PM 42.1436 -110.8933 23° Northeast 531 611 41,000  Level Salt Lake Center
02:55PM 42.2958 -110.8050 23° Northeast 530 610 41,000  Level Salt Lake Center
02:56PM 42.4297 -110.7289 23° Northeast 541 623 41,000  Level Salt Lake Center
02:57PM 42.5836 -110.6367 24° Northeast 540 621 41,000  Level Salt Lake Center
02:58PM 42.7136 -110.5617 23° Northeast 539 620 41,000  Level Salt Lake Center
02:59PM 42.8672 -110.4722 23° Northeast 539 620 41,000  Level Salt Lake Center
03:00PM 42.9969 -110.3939 24° Northeast 535 616 41,000  Level Salt Lake Center
03:01PM 43.1481 -110.3025 24° Northeast 533 613 41,000  Level Salt Lake Center
03:02PM 43.2819 -110.2208 24° Northeast 536 617 41,000  Level Salt Lake Center
03:03PM 43.4136 -110.1408 24° Northeast 541 623 41,000  Level Salt Lake Center
03:04PM 43.5614 -110.0506 24° Northeast 536 617 41,000  Level Salt Lake Center
03:05PM 43.6922 -109.9706 24° Northeast 538 619 41,000  Level Salt Lake Center
03:06PM 43.8444 -109.8781 24° Northeast 537 618 41,000  Level Salt Lake Center
03:07PM 43.9761 -109.7969 24° Northeast 541 623 41,000  Level Salt Lake Center
03:08PM 44.1286 -109.7031 24° Northeast 540 621 41,000  Level Salt Lake Center
03:09PM 44.2606 -109.6211 24° Northeast 543 625 41,000 -1,260 Level Salt Lake Center
03:11PM 44.4108 -109.5267 24° Northeast 533 613 38,400 -2,460 Descending Salt Lake Center
03:12PM 44.5303 -109.4514 24° Northeast 500 575 36,000 -2,400 Descending Salt Lake Center
03:13PM 44.6719 -109.3608 24° Northeast 500 575 33,600 -2,100 Descending Salt Lake Center
03:14PM 44.8017 -109.2792 24° Northeast 518 596 31,800 -1,740 Descending Salt Lake Center
03:15PM 44.9319 -109.1956 24° Northeast 531 611 30,100 -2,040 Descending Salt Lake Center
03:16PM 45.0850 -109.0975 24° Northeast 538 619 27,700 -2,760 Descending Salt Lake Center
03:17PM 45.2269 -109.0075 24° Northeast 505 581 24,400 -3,120 Descending Salt Lake Center
03:18PM 45.3428 -108.9322 25° Northeast 460 529 21,400 -3,240 Descending Salt Lake Center
03:19PM 45.4519 -108.8606 25° Northeast 402 463 17,800 -3,480 Descending Salt Lake Center
03:20PM 45.5467 -108.7983 25° Northeast 378 435 14,300 -3,120 Descending Salt Lake Center
03:21PM 45.6344 -108.7394 25° Northeast 356 410 11,400 -3,000 Descending Salt Lake Center
03:22PM 45.7200 -108.6906 22° Northeast 312 359 8,200 -2,880 Descending Salt Lake Center
03:23PM 45.7942 -108.6728 North 268 308 5,600 -1,860 Descending Salt Lake Center
03:24PM 45.8264 -108.6075 55° Northeast 184 212 4,500 -960 Descending Salt Lake Center
03:25PM 45.8128 -108.5564 111° Southeast 143 165 3,700 -780 Descending Salt Lake Center
03:27PM 45.8077 -108.5429 90° East  Level Estimated